createdAt,value
2018-12-30T00:00:07.562Z,23.6
2018-12-30T00:02:08.021Z,23.6
2018-12-30T00:04:04.716Z,23.6
2018-12-30T00:06:07.918Z,23.6
2018-12-30T00:08:04.692Z,23.6
2018-12-30T00:10:05.497Z,23.6
2018-12-30T00:12:07.759Z,23.6
2018-12-30T00:14:04.942Z,23.6
2018-12-30T00:16:04.706Z,23.6
2018-12-30T00:18:04.741Z,23.6
2018-12-30T00:20:04.746Z,23.6
2018-12-30T00:22:04.655Z,23.6
2018-12-30T00:24:06.748Z,23.6
2018-12-30T00:26:04.738Z,23.6
2018-12-30T00:28:12.244Z,23.6
2018-12-30T00:30:10.042Z,23.6
2018-12-30T00:32:05.065Z,23.6
2018-12-30T00:34:07.542Z,23.6
2018-12-30T00:36:07.966Z,23.6
2018-12-30T00:38:09.792Z,23.6
2018-12-30T00:40:05.656Z,23.6
2018-12-30T00:42:05.806Z,23.6
2018-12-30T00:44:12.815Z,23.6
2018-12-30T00:46:05.722Z,23.6
2018-12-30T00:48:04.921Z,23.6
2018-12-30T00:50:04.970Z,23.6
2018-12-30T00:52:05.357Z,23.6
2018-12-30T00:54:05.091Z,23.6
2018-12-30T00:56:07.843Z,23.6
2018-12-30T00:58:07.644Z,23.6
2018-12-30T01:00:05.442Z,23.6
2018-12-30T01:02:04.857Z,23.6
2018-12-30T01:04:05.963Z,23.6
2018-12-30T01:06:08.088Z,23.6
2018-12-30T01:08:04.965Z,23.6
2018-12-30T01:10:04.751Z,23.6
2018-12-30T01:12:05.186Z,23.6
2018-12-30T01:14:10.218Z,23.6
2018-12-30T01:16:04.948Z,23.6
2018-12-30T01:18:07.698Z,23.6
2018-12-30T01:20:05.415Z,23.6
2018-12-30T01:22:06.118Z,23.6
2018-12-30T01:24:05.377Z,23.6
2018-12-30T01:26:05.122Z,23.6
2018-12-30T01:28:05.122Z,23.6
2018-12-30T01:30:07.521Z,23.6
2018-12-30T01:32:05.773Z,23.6
2018-12-30T01:34:07.502Z,23.6
2018-12-30T01:36:04.902Z,23.6
2018-12-30T01:38:04.944Z,23.6
2018-12-30T01:40:04.948Z,23.6
2018-12-30T01:42:07.411Z,23.6
2018-12-30T01:44:10.679Z,23.6
2018-12-30T01:46:04.649Z,23.6
2018-12-30T01:48:07.345Z,23.6
2018-12-30T01:50:10.412Z,23.6
2018-12-30T01:52:05.694Z,23.6
2018-12-30T01:54:04.869Z,23.6
2018-12-30T01:56:04.815Z,23.7
2018-12-30T01:58:05.518Z,23.6
2018-12-30T02:00:18.871Z,23.6
2018-12-30T02:02:04.889Z,23.6
2018-12-30T02:04:04.615Z,23.6
2018-12-30T02:06:05.557Z,23.6
2018-12-30T02:08:04.835Z,23.6
2018-12-30T02:10:05.073Z,23.6
2018-12-30T02:12:04.844Z,23.6
2018-12-30T02:14:04.813Z,23.6
2018-12-30T02:16:05.552Z,23.6
2018-12-30T02:18:10.023Z,23.6
2018-12-30T02:20:05.305Z,23.6
2018-12-30T02:22:06.058Z,23.6
2018-12-30T02:24:08.115Z,23.6
2018-12-30T02:26:04.801Z,23.6
2018-12-30T02:28:04.830Z,23.6
2018-12-30T02:30:05.538Z,23.6
2018-12-30T02:32:05.194Z,23.6
2018-12-30T02:34:04.980Z,23.6
2018-12-30T02:36:05.261Z,23.5
2018-12-30T02:38:07.488Z,23.6
2018-12-30T02:40:05.702Z,23.6
2018-12-30T02:42:05.460Z,23.6
2018-12-30T02:44:05.164Z,23.5
2018-12-30T02:46:04.845Z,23.5
2018-12-30T02:48:05.555Z,23.5
2018-12-30T02:50:05.283Z,23.5
2018-12-30T02:52:04.994Z,23.4
2018-12-30T02:54:04.717Z,23.4
2018-12-30T02:56:05.370Z,23.4
2018-12-30T02:58:07.772Z,23.4
2018-12-30T03:00:08.098Z,23.3
2018-12-30T03:02:04.767Z,23.3
2018-12-30T03:04:05.437Z,23.3
2018-12-30T03:06:05.139Z,23.3
2018-12-30T03:08:05.473Z,23.3
2018-12-30T03:10:05.177Z,23.3
2018-12-30T03:12:04.871Z,23.3
2018-12-30T03:14:08.105Z,23.3
2018-12-30T03:16:07.611Z,23.3
2018-12-30T03:18:05.013Z,23.3
2018-12-30T03:20:04.752Z,23.3
2018-12-30T03:22:05.484Z,23.3
2018-12-30T03:24:04.689Z,23.3
2018-12-30T03:26:05.381Z,23.3
2018-12-30T03:28:05.077Z,23.3
2018-12-30T03:30:05.054Z,23.2
2018-12-30T03:32:07.285Z,23.2
2018-12-30T03:34:12.628Z,23.2
2018-12-30T03:36:05.330Z,23.2
2018-12-30T03:38:05.022Z,23.2
2018-12-30T03:40:04.765Z,23.2
2018-12-30T03:42:07.938Z,23.2
2018-12-30T03:44:04.688Z,23.2
2018-12-30T03:46:07.964Z,23.2
2018-12-30T03:48:04.602Z,23.2
2018-12-30T03:50:05.265Z,23.2
2018-12-30T03:52:08.462Z,23.2
2018-12-30T03:54:07.922Z,23.1
2018-12-30T03:56:04.652Z,23.1
2018-12-30T03:58:07.911Z,23.1
2018-12-30T04:00:04.771Z,23.1
2018-12-30T04:02:05.573Z,23.1
2018-12-30T04:04:05.315Z,23.1
2018-12-30T04:06:10.147Z,23.1
2018-12-30T04:08:04.818Z,23.1
2018-12-30T04:10:05.482Z,23.1
2018-12-30T04:12:04.711Z,23.1
2018-12-30T04:14:05.374Z,23.2
2018-12-30T04:16:05.171Z,23.1
2018-12-30T04:18:07.581Z,23.1
2018-12-30T04:20:05.237Z,23.1
2018-12-30T04:22:05.499Z,23.1
2018-12-30T04:24:05.193Z,23.1
2018-12-30T04:26:04.934Z,23.1
2018-12-30T04:28:04.605Z,23.1
2018-12-30T04:30:05.368Z,23.1
2018-12-30T04:32:07.627Z,23.1
2018-12-30T04:34:05.324Z,23.1
2018-12-30T04:36:05.009Z,23.1
2018-12-30T04:38:05.221Z,23.1
2018-12-30T04:40:07.492Z,23
2018-12-30T04:42:04.711Z,23
2018-12-30T04:44:07.975Z,23
2018-12-30T04:46:04.757Z,23
2018-12-30T04:48:05.480Z,23
2018-12-30T04:50:07.691Z,23.1
2018-12-30T04:52:10.403Z,23.1
2018-12-30T04:54:05.091Z,23.1
2018-12-30T04:56:04.797Z,23.1
2018-12-30T04:58:05.007Z,23.1
2018-12-30T05:00:07.291Z,23.2
2018-12-30T05:02:05.006Z,23.2
2018-12-30T05:04:04.735Z,23.2
2018-12-30T05:06:05.416Z,23.2
2018-12-30T05:08:05.130Z,23.2
2018-12-30T05:10:04.823Z,23.2
2018-12-30T05:12:05.501Z,23.2
2018-12-30T05:14:12.817Z,23.2
2018-12-30T05:16:05.620Z,23.2
2018-12-30T05:18:12.609Z,23.2
2018-12-30T05:20:05.459Z,23.2
2018-12-30T05:22:05.198Z,23.2
2018-12-30T05:24:07.393Z,23.3
2018-12-30T05:26:05.091Z,23.3
2018-12-30T05:28:04.856Z,23.3
2018-12-30T05:30:05.519Z,23.3
2018-12-30T05:32:05.233Z,23.3
2018-12-30T05:34:13.559Z,23.3
2018-12-30T05:36:08.289Z,23.3
2018-12-30T05:38:04.964Z,23.2
2018-12-30T05:40:05.259Z,23.3
2018-12-30T05:42:07.482Z,23.3
2018-12-30T05:44:05.165Z,23.3
2018-12-30T05:46:05.395Z,23.3
2018-12-30T05:48:04.942Z,23.3
2018-12-30T05:50:05.670Z,23.3
2018-12-30T05:52:05.335Z,23.3
2018-12-30T05:54:05.081Z,23.4
2018-12-30T05:56:04.804Z,23.4
2018-12-30T05:58:05.499Z,23.4
2018-12-30T06:00:05.171Z,23.4
2018-12-30T06:02:04.886Z,23.4
2018-12-30T06:04:05.546Z,23.4
2018-12-30T06:06:05.234Z,23.4
2018-12-30T06:08:05.437Z,23.4
2018-12-30T06:10:05.141Z,23.3
2018-12-30T06:12:04.851Z,23.3
2018-12-30T06:14:05.513Z,23.3
2018-12-30T06:16:05.291Z,23.3
2018-12-30T06:18:04.782Z,23.3
2018-12-30T06:20:08.011Z,23.3
2018-12-30T06:22:07.282Z,23.3
2018-12-30T06:24:04.910Z,23.2
2018-12-30T06:26:05.584Z,23.2
2018-12-30T06:28:05.354Z,23.3
2018-12-30T06:30:05.072Z,23.2
2018-12-30T06:32:07.262Z,23.2
2018-12-30T06:34:04.953Z,23.2
2018-12-30T06:36:07.182Z,23.2
2018-12-30T06:38:07.475Z,23.3
2018-12-30T06:40:11.375Z,23.2
2018-12-30T06:42:05.381Z,23.2
2018-12-30T06:44:07.666Z,23.2
2018-12-30T06:46:05.653Z,23.2
2018-12-30T06:48:05.319Z,23.2
2018-12-30T06:50:05.531Z,23.2
2018-12-30T06:52:05.213Z,23.2
2018-12-30T06:54:04.982Z,23.2
2018-12-30T06:56:04.640Z,23.2
2018-12-30T06:58:05.287Z,23.2
2018-12-30T07:00:07.505Z,23.2
2018-12-30T07:02:05.162Z,23.2
2018-12-30T07:04:07.342Z,23.3
2018-12-30T07:06:05.554Z,23.3
2018-12-30T07:08:04.774Z,23.3
2018-12-30T07:10:05.525Z,23.3
2018-12-30T07:12:07.730Z,23.3
2018-12-30T07:14:05.394Z,23.3
2018-12-30T07:16:04.909Z,23.3
2018-12-30T07:18:07.329Z,23.3
2018-12-30T07:20:05.092Z,23.2
2018-12-30T07:22:09.961Z,23.2
2018-12-30T07:24:05.166Z,23.2
2018-12-30T07:26:07.425Z,23.2
2018-12-30T07:28:05.095Z,23.2
2018-12-30T07:30:05.312Z,23.2
2018-12-30T07:32:05.001Z,23.3
2018-12-30T07:34:04.707Z,23.2
2018-12-30T07:36:05.479Z,23.2
2018-12-30T07:38:07.677Z,23.2
2018-12-30T07:40:07.855Z,23.2
2018-12-30T07:42:05.548Z,23.2
2018-12-30T07:44:05.295Z,23.2
2018-12-30T07:46:07.518Z,23.2
2018-12-30T07:48:04.708Z,23.2
2018-12-30T07:50:05.386Z,23.2
2018-12-30T07:52:05.041Z,23.2
2018-12-30T07:54:04.752Z,23.2
2018-12-30T07:56:05.540Z,23.2
2018-12-30T07:58:05.216Z,23.3
2018-12-30T08:00:04.964Z,23.2
2018-12-30T08:02:04.753Z,23.3
2018-12-30T08:04:04.958Z,23.3
2018-12-30T08:06:04.634Z,23.3
2018-12-30T08:08:05.327Z,23.2
2018-12-30T08:10:07.527Z,23.2
2018-12-30T08:12:07.789Z,23.2
2018-12-30T08:14:05.497Z,23.2
2018-12-30T08:16:05.227Z,23.2
2018-12-30T08:18:05.142Z,23.2
2018-12-30T08:20:04.841Z,23.3
2018-12-30T08:22:05.492Z,23.2
2018-12-30T08:24:05.248Z,23.2
2018-12-30T08:26:04.915Z,23.2
2018-12-30T08:28:04.794Z,23.3
2018-12-30T08:30:05.551Z,23.2
2018-12-30T08:32:05.202Z,23.3
2018-12-30T08:34:04.958Z,23.3
2018-12-30T08:36:04.835Z,23.3
2018-12-30T08:38:08.120Z,23.3
2018-12-30T08:40:07.317Z,23.3
2018-12-30T08:42:10.617Z,23.4
2018-12-30T08:44:05.355Z,23.4
2018-12-30T08:46:05.032Z,23.4
2018-12-30T08:48:04.731Z,23.4
2018-12-30T08:50:04.660Z,23.4
2018-12-30T08:52:05.355Z,23.4
2018-12-30T08:54:05.401Z,23.4
2018-12-30T08:56:07.707Z,23.3
2018-12-30T08:58:05.384Z,23.4
2018-12-30T09:00:04.669Z,23.3
2018-12-30T09:02:05.505Z,23.3
2018-12-30T09:04:05.296Z,23.3
2018-12-30T09:06:07.693Z,23.4
2018-12-30T09:08:05.448Z,23.4
2018-12-30T09:10:05.308Z,23.4
2018-12-30T09:12:05.101Z,23.4
2018-12-30T09:14:07.442Z,23.4
2018-12-30T09:16:07.715Z,23.4
2018-12-30T09:18:05.584Z,23.4
2018-12-30T09:20:05.295Z,23.4
2018-12-30T09:22:05.057Z,23.4
2018-12-30T09:24:04.799Z,23.4
2018-12-30T09:26:05.460Z,23.4
2018-12-30T09:28:05.138Z,23.5
2018-12-30T09:30:04.923Z,23.5
2018-12-30T09:32:07.229Z,23.5
2018-12-30T09:34:07.502Z,23.5
2018-12-30T09:36:07.665Z,23.5
2018-12-30T09:38:05.366Z,23.5
2018-12-30T09:40:05.101Z,23.5
2018-12-30T09:42:04.769Z,23.5
2018-12-30T09:44:05.485Z,23.5
2018-12-30T09:46:05.193Z,23.5
2018-12-30T09:48:05.854Z,23.5
2018-12-30T09:50:05.518Z,23.5
2018-12-30T09:52:05.171Z,23.5
2018-12-30T09:54:04.877Z,23.4
2018-12-30T09:56:05.635Z,23.5
2018-12-30T09:58:05.497Z,23.4
2018-12-30T10:00:05.188Z,23.4
2018-12-30T10:02:04.885Z,23.4
2018-12-30T10:04:05.615Z,23.4
2018-12-30T10:06:04.880Z,23.4
2018-12-30T10:08:05.588Z,23.4
2018-12-30T10:10:07.870Z,23.5
2018-12-30T10:12:05.547Z,23.5
2018-12-30T10:14:10.327Z,23.5
2018-12-30T10:16:12.656Z,23.4
2018-12-30T10:18:05.085Z,23.5
2018-12-30T10:20:04.766Z,23.5
2018-12-30T10:22:05.077Z,23.6
2018-12-30T10:24:04.770Z,23.6
2018-12-30T10:26:05.448Z,23.6
2018-12-30T10:28:05.124Z,23.6
2018-12-30T10:30:07.365Z,23.6
2018-12-30T10:32:05.137Z,23.6
2018-12-30T10:34:07.367Z,23.6
2018-12-30T10:36:05.097Z,23.5
2018-12-30T10:38:07.289Z,23.6
2018-12-30T10:40:05.215Z,23.6
2018-12-30T10:42:04.906Z,23.6
2018-12-30T10:44:05.119Z,23.6
2018-12-30T10:46:04.848Z,23.6
2018-12-30T10:48:05.537Z,23.6
2018-12-30T10:50:05.197Z,23.6
2018-12-30T10:52:09.969Z,23.5
2018-12-30T10:54:04.658Z,23.5
2018-12-30T10:56:07.902Z,23.5
2018-12-30T10:58:05.650Z,23.5
2018-12-30T11:00:05.092Z,23.5
2018-12-30T11:02:07.281Z,23.4
2018-12-30T11:04:05.573Z,23.4
2018-12-30T11:06:05.249Z,23.4
2018-12-30T11:08:04.912Z,23.5
2018-12-30T11:10:04.648Z,23.5
2018-12-30T11:12:05.323Z,23.5
2018-12-30T11:14:05.059Z,23.5
2018-12-30T11:16:07.298Z,23.5
2018-12-30T11:18:05.182Z,23.5
2018-12-30T11:20:07.915Z,23.4
2018-12-30T11:22:04.680Z,23.4
2018-12-30T11:24:08.628Z,23.4
2018-12-30T11:26:05.594Z,23.4
2018-12-30T11:28:05.237Z,23.4
2018-12-30T11:30:04.922Z,23.4
2018-12-30T11:32:04.647Z,23.4
2018-12-30T11:34:05.333Z,23.4
2018-12-30T11:36:05.266Z,23.4
2018-12-30T11:38:10.086Z,23.5
2018-12-30T11:40:04.865Z,23.5
2018-12-30T11:42:05.550Z,23.5
2018-12-30T11:44:10.333Z,23.5
2018-12-30T11:46:05.017Z,23.5
2018-12-30T11:48:07.180Z,23.5
2018-12-30T11:50:04.868Z,23.5
2018-12-30T11:52:05.616Z,23.5
2018-12-30T11:54:05.494Z,23.5
2018-12-30T11:56:05.279Z,23.5
2018-12-30T11:58:05.554Z,23.5
2018-12-30T12:00:05.237Z,23.5
2018-12-30T12:02:04.940Z,23.5
2018-12-30T12:04:09.716Z,23.4
2018-12-30T12:06:04.975Z,23.4
2018-12-30T12:08:05.588Z,23.4
2018-12-30T12:10:04.896Z,23.4
2018-12-30T12:12:05.646Z,23.5
2018-12-30T12:14:10.482Z,23.4
2018-12-30T12:16:05.161Z,23.4
2018-12-30T12:18:05.562Z,23.4
2018-12-30T12:20:05.272Z,23.4
2018-12-30T12:22:04.971Z,23.4
2018-12-30T12:24:07.153Z,23.4
2018-12-30T12:26:09.874Z,23.4
2018-12-30T12:28:08.105Z,23.4
2018-12-30T12:30:07.556Z,23.4
2018-12-30T12:32:04.824Z,23.4
2018-12-30T12:34:05.601Z,23.4
2018-12-30T12:36:04.775Z,23.4
2018-12-30T12:38:07.930Z,23.4
2018-12-30T12:40:05.598Z,23.4
2018-12-30T12:42:05.247Z,23.4
2018-12-30T12:44:04.922Z,23.4
2018-12-30T12:46:06.227Z,23.4
2018-12-30T12:48:04.996Z,23.4
2018-12-30T12:50:07.282Z,23.3
2018-12-30T12:52:07.559Z,23.3
2018-12-30T12:54:07.331Z,23.3
2018-12-30T12:56:05.032Z,23.3
2018-12-30T12:58:07.249Z,23.3
2018-12-30T13:00:04.980Z,23.3
2018-12-30T13:02:07.222Z,23.3
2018-12-30T13:04:04.958Z,23.3
2018-12-30T13:06:04.634Z,23.3
2018-12-30T13:08:07.061Z,23.2
2018-12-30T13:10:04.956Z,23.2
2018-12-30T13:12:04.688Z,23.2
2018-12-30T13:14:04.968Z,23.3
2018-12-30T13:16:04.642Z,23.2
2018-12-30T13:18:10.545Z,23.2
2018-12-30T13:20:05.228Z,23.3
2018-12-30T13:22:04.893Z,23.2
2018-12-30T13:24:05.600Z,23.2
2018-12-30T13:26:09.882Z,23.2
2018-12-30T13:28:05.603Z,23.2
2018-12-30T13:30:04.861Z,23.2
2018-12-30T13:32:08.151Z,23.2
2018-12-30T13:34:04.809Z,23.2
2018-12-30T13:36:08.106Z,23.2
2018-12-30T13:38:04.798Z,23.2
2018-12-30T13:40:05.433Z,23.2
2018-12-30T13:42:07.916Z,23.1
2018-12-30T13:44:10.415Z,23.2
2018-12-30T13:46:05.617Z,23.1
2018-12-30T13:48:05.276Z,23.2
2018-12-30T13:50:04.931Z,23.2
2018-12-30T13:52:05.224Z,23.2
2018-12-30T13:54:05.438Z,23.2
2018-12-30T13:56:05.112Z,23.2
2018-12-30T13:58:05.368Z,23.2
2018-12-30T14:00:05.013Z,23.2
2018-12-30T14:02:04.798Z,23.2
2018-12-30T14:04:05.060Z,23.2
2018-12-30T14:06:05.210Z,23.3
2018-12-30T14:08:04.850Z,23.3
2018-12-30T14:10:08.102Z,23.3
2018-12-30T14:12:04.778Z,23.3
2018-12-30T14:14:09.181Z,23.4
2018-12-30T14:16:07.537Z,23.5
2018-12-30T14:18:05.527Z,23.5
2018-12-30T14:20:05.247Z,23.5
2018-12-30T14:22:04.970Z,23.5
2018-12-30T14:24:04.644Z,23.5
2018-12-30T14:26:06.354Z,23.6
2018-12-30T14:28:05.608Z,23.6
2018-12-30T14:30:10.549Z,23.6
2018-12-30T14:32:04.686Z,23.6
2018-12-30T14:34:08.609Z,23.6
2018-12-30T14:36:09.791Z,23.6
2018-12-30T14:38:15.611Z,23.6
2018-12-30T14:40:08.037Z,23.6
2018-12-30T14:42:09.974Z,23.6
2018-12-30T14:44:04.679Z,23.6
2018-12-30T14:46:05.583Z,23.6
2018-12-30T14:48:07.769Z,23.6
2018-12-30T14:50:05.596Z,23.6
2018-12-30T14:52:07.926Z,23.6
2018-12-30T14:54:04.719Z,23.5
2018-12-30T14:56:08.052Z,23.6
2018-12-30T14:58:04.769Z,23.5
2018-12-30T15:00:05.461Z,23.6
2018-12-30T15:02:05.220Z,23.5
2018-12-30T15:04:05.045Z,23.5
2018-12-30T15:06:07.425Z,23.6
2018-12-30T15:08:07.706Z,23.5
2018-12-30T15:10:06.001Z,23.5
2018-12-30T15:12:04.668Z,23.5
2018-12-30T15:14:05.426Z,23.5
2018-12-30T15:16:07.671Z,23.5
2018-12-30T15:18:07.314Z,23.5
2018-12-30T15:20:05.569Z,23.5
2018-12-30T15:22:05.424Z,23.5
2018-12-30T15:24:05.152Z,23.5
2018-12-30T15:26:07.403Z,23.5
2018-12-30T15:28:05.582Z,23.4
2018-12-30T15:30:05.369Z,23.4
2018-12-30T15:32:05.064Z,23.4
2018-12-30T15:34:07.307Z,23.3
2018-12-30T15:36:05.076Z,23.3
2018-12-30T15:38:04.769Z,23.2
2018-12-30T15:40:14.046Z,23.2
2018-12-30T15:42:07.293Z,23.2
2018-12-30T15:44:07.660Z,23.3
2018-12-30T15:46:08.107Z,23.2
2018-12-30T15:48:05.521Z,23.2
2018-12-30T15:50:05.276Z,23.2
2018-12-30T15:52:05.069Z,23.2
2018-12-30T15:54:04.749Z,23.2
2018-12-30T15:56:04.660Z,23.2
2018-12-30T15:58:05.642Z,23.2
2018-12-30T16:00:10.433Z,23.3
2018-12-30T16:02:10.201Z,23.2
2018-12-30T16:04:04.931Z,23.3
2018-12-30T16:06:12.411Z,23.3
2018-12-30T16:08:10.180Z,23.2
2018-12-30T16:10:05.064Z,23.2
2018-12-30T16:12:04.883Z,23.2
2018-12-30T16:14:05.622Z,23.2
2018-12-30T16:16:07.871Z,23.2
2018-12-30T16:18:05.333Z,23.1
2018-12-30T16:20:07.619Z,23.2
2018-12-30T16:22:05.411Z,23.2
2018-12-30T16:24:07.611Z,23.2
2018-12-30T16:26:05.251Z,23.2
2018-12-30T16:28:07.439Z,23.2
2018-12-30T16:30:05.089Z,23.2
2018-12-30T16:32:04.807Z,23.2
2018-12-30T16:34:05.257Z,23.2
2018-12-30T16:36:04.983Z,23.3
2018-12-30T16:38:04.762Z,23.2
2018-12-30T16:40:05.473Z,23.2
2018-12-30T16:42:10.215Z,23.2
2018-12-30T16:44:04.920Z,23.3
2018-12-30T16:46:10.231Z,23.3
2018-12-30T16:48:10.068Z,23.2
2018-12-30T16:50:04.790Z,23.3
2018-12-30T16:52:05.534Z,23.3
2018-12-30T16:54:05.422Z,23.3
2018-12-30T16:56:04.654Z,23.4
2018-12-30T16:58:05.355Z,23.4
2018-12-30T17:00:05.161Z,23.4
2018-12-30T17:02:07.375Z,23.4
2018-12-30T17:04:05.091Z,23.4
2018-12-30T17:06:04.797Z,23.4
2018-12-30T17:08:05.685Z,23.4
2018-12-30T17:10:05.368Z,23.4
2018-12-30T17:12:05.586Z,23.4
2018-12-30T17:14:07.407Z,23.4
2018-12-30T17:16:05.074Z,23.4
2018-12-30T17:18:04.929Z,23.4
2018-12-30T17:20:10.675Z,23.4
2018-12-30T17:22:05.367Z,23.4
2018-12-30T17:24:07.280Z,23.4
2018-12-30T17:26:04.954Z,23.4
2018-12-30T17:28:04.697Z,23.4
2018-12-30T17:30:04.845Z,23.4
2018-12-30T17:32:05.109Z,23.4
2018-12-30T17:34:06.404Z,23.4
2018-12-30T17:36:06.427Z,23.4
2018-12-30T17:38:04.974Z,23.4
2018-12-30T17:40:04.680Z,23.4
2018-12-30T17:42:04.950Z,23.3
2018-12-30T17:44:04.770Z,23.3
2018-12-30T17:46:05.559Z,23.4
2018-12-30T17:48:07.900Z,23.4
2018-12-30T17:50:05.659Z,23.4
2018-12-30T17:52:05.394Z,23.3
2018-12-30T17:54:05.097Z,23.4
2018-12-30T17:56:04.769Z,23.4
2018-12-30T17:58:04.675Z,23.4
2018-12-30T18:00:05.391Z,23.4
2018-12-30T18:02:05.047Z,23.4
2018-12-30T18:04:04.700Z,23.4
2018-12-30T18:06:05.394Z,23.4
2018-12-30T18:08:10.208Z,23.4
2018-12-30T18:10:04.849Z,23.4
2018-12-30T18:12:05.522Z,23.4
2018-12-30T18:14:05.182Z,23.4
2018-12-30T18:16:04.892Z,23.3
2018-12-30T18:18:05.388Z,23.4
2018-12-30T18:20:05.077Z,23.3
2018-12-30T18:22:04.790Z,23.3
2018-12-30T18:24:04.995Z,23.3
2018-12-30T18:26:04.671Z,23.4
2018-12-30T18:28:10.427Z,23.3
2018-12-30T18:30:05.103Z,23.3
2018-12-30T18:32:04.785Z,23.3
2018-12-30T18:34:05.461Z,23.3
2018-12-30T18:36:05.202Z,23.3
2018-12-30T18:38:07.378Z,23.3
2018-12-30T18:40:05.594Z,23.3
2018-12-30T18:42:05.378Z,23.3
2018-12-30T18:44:07.607Z,23.3
2018-12-30T18:46:09.917Z,23.3
2018-12-30T18:48:07.139Z,23.2
2018-12-30T18:50:09.895Z,23.2
2018-12-30T18:52:08.101Z,23.2
2018-12-30T18:54:04.897Z,23.2
2018-12-30T18:56:06.773Z,23.2
2018-12-30T18:58:04.818Z,23.2
2018-12-30T19:00:05.578Z,23.2
2018-12-30T19:02:07.826Z,23.2
2018-12-30T19:04:05.486Z,23.2
2018-12-30T19:06:05.187Z,23.2
2018-12-30T19:08:04.857Z,23.2
2018-12-30T19:10:05.546Z,23.2
2018-12-30T19:12:05.252Z,23.2
2018-12-30T19:14:04.980Z,23.2
2018-12-30T19:16:04.668Z,23.2
2018-12-30T19:18:05.659Z,23.2
2018-12-30T19:20:05.372Z,23.1
2018-12-30T19:22:05.086Z,23.2
2018-12-30T19:24:04.737Z,23.2
2018-12-30T19:26:14.201Z,23.1
2018-12-30T19:28:05.167Z,23
2018-12-30T19:30:07.363Z,23.1
2018-12-30T19:32:05.035Z,23.1
2018-12-30T19:34:04.726Z,23.1
2018-12-30T19:36:05.481Z,23.1
2018-12-30T19:38:10.242Z,23.1
2018-12-30T19:40:12.546Z,23.1
2018-12-30T19:42:05.243Z,23.1
2018-12-30T19:44:04.952Z,23.1
2018-12-30T19:46:05.377Z,23
2018-12-30T19:48:05.199Z,23
2018-12-30T19:50:05.206Z,23
2018-12-30T19:52:04.898Z,23
2018-12-30T19:54:04.722Z,23
2018-12-30T19:56:05.459Z,23
2018-12-30T19:58:05.158Z,23.1
2018-12-30T20:00:05.433Z,23.1
2018-12-30T20:02:05.145Z,23.1
2018-12-30T20:04:04.866Z,23.1
2018-12-30T20:06:05.145Z,23.1
2018-12-30T20:08:04.874Z,23.1
2018-12-30T20:10:05.668Z,23.1
2018-12-30T20:12:05.387Z,23.2
2018-12-30T20:14:05.128Z,23.2
2018-12-30T20:16:04.819Z,23.2
2018-12-30T20:18:14.875Z,23.2
2018-12-30T20:20:04.861Z,23.2
2018-12-30T20:22:08.151Z,23.3
2018-12-30T20:24:05.424Z,23.3
2018-12-30T20:26:05.305Z,23.3
2018-12-30T20:28:05.399Z,23.4
2018-12-30T20:30:05.095Z,23.3
2018-12-30T20:32:05.515Z,23.4
2018-12-30T20:34:05.407Z,23.4
2018-12-30T20:36:05.387Z,23.4
2018-12-30T20:38:05.165Z,23.4
2018-12-30T20:40:05.451Z,23.4
2018-12-30T20:42:05.648Z,23.4
2018-12-30T20:44:05.726Z,23.5
2018-12-30T20:46:05.576Z,23.4
2018-12-30T20:48:05.340Z,23.5
2018-12-30T20:50:05.229Z,23.5
2018-12-30T20:52:05.090Z,23.5
2018-12-30T20:54:07.449Z,23.5
2018-12-30T20:56:08.159Z,23.5
2018-12-30T20:58:05.105Z,23.5
2018-12-30T21:00:04.995Z,23.5
2018-12-30T21:02:05.291Z,23.5
2018-12-30T21:04:04.996Z,23.5
2018-12-30T21:06:05.354Z,23.5
2018-12-30T21:08:05.364Z,23.4
2018-12-30T21:10:05.063Z,23.4
2018-12-30T21:12:05.071Z,23.5
2018-12-30T21:14:05.274Z,23.5
2018-12-30T21:16:08.123Z,23.4
2018-12-30T21:18:05.154Z,23.4
2018-12-30T21:20:07.371Z,23.4
2018-12-30T21:22:05.138Z,23.4
2018-12-30T21:24:04.811Z,23.4
2018-12-30T21:26:05.473Z,23.4
2018-12-30T21:28:05.136Z,23.4
2018-12-30T21:30:07.348Z,23.4
2018-12-30T21:32:04.997Z,23.3
2018-12-30T21:34:12.276Z,23.3
2018-12-30T21:36:05.145Z,23.4
2018-12-30T21:38:04.865Z,23.4
2018-12-30T21:40:07.361Z,23.3
2018-12-30T21:42:05.021Z,23.3
2018-12-30T21:44:07.210Z,23.3
2018-12-30T21:46:04.931Z,23.2
2018-12-30T21:48:05.164Z,23.3
2018-12-30T21:50:04.990Z,23.2
2018-12-30T21:52:04.963Z,23.3
2018-12-30T21:54:12.276Z,23.2
2018-12-30T21:56:04.923Z,23.2
2018-12-30T21:58:08.103Z,23.2
2018-12-30T22:00:04.764Z,23.2
2018-12-30T22:02:04.634Z,23.2
2018-12-30T22:04:10.386Z,23.2
2018-12-30T22:06:07.611Z,23.2
2018-12-30T22:08:05.373Z,23.2
2018-12-30T22:10:05.553Z,23.2
2018-12-30T22:12:05.538Z,23.2
2018-12-30T22:14:05.305Z,23.2
2018-12-30T22:16:05.604Z,23.2
2018-12-30T22:18:05.088Z,23.2
2018-12-30T22:20:08.040Z,23.2
2018-12-30T22:22:04.709Z,23.2
2018-12-30T22:24:05.476Z,23.2
2018-12-30T22:26:05.116Z,23.2
2018-12-30T22:28:09.918Z,23.2
2018-12-30T22:30:04.677Z,23.2
2018-12-30T22:32:07.858Z,23.2
2018-12-30T22:34:05.521Z,23.2
2018-12-30T22:36:10.299Z,23.2
2018-12-30T22:38:07.596Z,23.2
2018-12-30T22:40:04.966Z,23.2
2018-12-30T22:42:04.676Z,23.2
2018-12-30T22:44:04.922Z,23.2
2018-12-30T22:46:04.634Z,23.2
2018-12-30T22:48:05.306Z,23.2
2018-12-30T22:50:05.039Z,23.2
2018-12-30T22:52:04.995Z,23.2
2018-12-30T22:54:04.680Z,23.1
2018-12-30T22:56:04.931Z,23.2
2018-12-30T22:58:07.212Z,23.2
2018-12-30T23:00:04.940Z,23.2
2018-12-30T23:02:05.167Z,23.2
2018-12-30T23:04:04.980Z,23.3
2018-12-30T23:06:07.199Z,23.2
2018-12-30T23:08:04.943Z,23.2
2018-12-30T23:10:04.599Z,23.2
2018-12-30T23:12:05.244Z,23.2
2018-12-30T23:14:05.110Z,23.1
2018-12-30T23:16:04.799Z,23.1
2018-12-30T23:18:04.684Z,23.2
2018-12-30T23:20:10.011Z,23.2
2018-12-30T23:22:04.715Z,23.2
2018-12-30T23:24:05.425Z,23.2
2018-12-30T23:26:05.152Z,23.2
2018-12-30T23:28:05.352Z,23.2
2018-12-30T23:30:05.029Z,23.2
2018-12-30T23:32:04.705Z,23.2
2018-12-30T23:34:07.925Z,23.2
2018-12-30T23:36:07.173Z,23.2
2018-12-30T23:38:04.906Z,23.2
2018-12-30T23:40:05.548Z,23.2
2018-12-30T23:42:05.406Z,23.2
2018-12-30T23:44:05.141Z,23.2
2018-12-30T23:46:04.964Z,23.2
2018-12-30T23:48:04.660Z,23.2
2018-12-30T23:50:07.886Z,23.2
2018-12-30T23:52:05.562Z,23.2
2018-12-30T23:54:05.230Z,23.2
2018-12-30T23:56:05.142Z,23.2
2018-12-30T23:58:04.878Z,23.3
